createdAt,value
2022-12-24T00:02:46.392Z,44.03
2022-12-24T00:05:48.297Z,45.00
2022-12-24T00:08:51.499Z,43.67
2022-12-24T00:11:53.393Z,48.20
2022-12-24T00:14:55.285Z,45.70
2022-12-24T00:17:57.289Z,48.00
2022-12-24T00:20:59.308Z,44.13
2022-12-24T00:24:04.016Z,49.08
2022-12-24T00:27:06.025Z,42.15
2022-12-24T00:30:09.034Z,53.97
2022-12-24T00:36:13.384Z,51.08
2022-12-24T00:39:15.311Z,55.58
2022-12-24T00:42:17.098Z,49.38
2022-12-24T00:45:19.018Z,52.95
2022-12-24T00:48:20.905Z,49.22
2022-12-24T00:51:24.518Z,48.60
2022-12-24T00:54:26.483Z,50.47
2022-12-24T00:57:28.309Z,51.88
2022-12-24T01:00:30.187Z,46.95
2022-12-24T01:03:35.679Z,51.10
2022-12-24T01:06:37.581Z,44.80
2022-12-24T01:09:39.542Z,45.30
2022-12-24T01:12:41.599Z,48.90
2022-12-24T01:15:43.435Z,51.83
2022-12-24T01:18:45.620Z,43.03
2022-12-24T01:21:47.645Z,42.83
2022-12-24T01:24:49.639Z,48.53
2022-12-24T01:27:51.455Z,46.50
2022-12-24T01:30:53.556Z,48.58
2022-12-24T01:33:55.510Z,47.28
2022-12-24T01:36:57.333Z,43.70
2022-12-24T01:40:18.073Z,47.35
2022-12-24T01:43:24.819Z,44.22
2022-12-24T01:46:30.417Z,44.38
2022-12-24T01:49:32.628Z,46.95
2022-12-24T01:52:36.257Z,46.20
2022-12-24T01:55:40.139Z,44.80
2022-12-24T01:58:48.655Z,47.72
2022-12-24T02:01:52.182Z,46.47
2022-12-24T02:05:00.838Z,47.60
2022-12-24T02:08:05.287Z,48.08
2022-12-24T02:11:19.455Z,45.08
2022-12-24T02:14:28.541Z,48.65
2022-12-24T02:17:39.317Z,47.95
2022-12-24T02:20:50.007Z,46.78
2022-12-24T02:24:13.253Z,46.22
2022-12-24T02:27:21.460Z,46.78
2022-12-24T02:30:41.838Z,47.97
2022-12-24T02:34:28.480Z,46.47
2022-12-24T02:37:39.614Z,43.60
2022-12-24T02:40:56.332Z,46.78
2022-12-24T02:43:58.666Z,43.33
2022-12-24T02:47:01.875Z,43.92
2022-12-24T02:50:07.280Z,47.72
2022-12-24T02:53:10.754Z,46.03
2022-12-24T02:56:12.571Z,46.58
2022-12-24T02:59:43.397Z,48.33
2022-12-24T03:03:07.837Z,44.90
2022-12-24T03:06:17.175Z,45.13
2022-12-24T03:09:36.957Z,45.65
2022-12-24T03:12:50.204Z,51.53
2022-12-24T03:15:52.193Z,52.63
2022-12-24T03:18:56.849Z,48.27
2022-12-24T03:22:00.994Z,47.55
2022-12-24T03:25:03.913Z,50.80
2022-12-24T03:31:10.051Z,52.38
2022-12-24T03:34:13.245Z,50.88
2022-12-24T03:37:15.136Z,46.10
2022-12-24T03:40:17.044Z,52.15
2022-12-24T03:43:18.917Z,50.92
2022-12-24T03:46:20.663Z,54.45
2022-12-24T03:49:22.490Z,52.60
2022-12-24T03:52:24.761Z,49.53
2022-12-24T03:55:26.750Z,56.70
2022-12-24T03:58:28.665Z,55.63
2022-12-24T04:01:30.615Z,54.65
2022-12-24T04:04:33.536Z,53.00
2022-12-24T04:07:35.421Z,58.15
2022-12-24T04:10:37.269Z,54.15
2022-12-24T04:13:39.201Z,52.88
2022-12-24T04:16:41.028Z,55.88
2022-12-24T04:19:43.370Z,57.47
2022-12-24T04:22:45.235Z,57.50
2022-12-24T04:25:47.766Z,59.22
2022-12-24T04:28:49.652Z,57.10
2022-12-24T04:31:51.507Z,55.17
2022-12-24T04:34:53.430Z,53.35
2022-12-24T04:37:55.422Z,56.90
2022-12-24T04:41:10.577Z,57.60
2022-12-24T04:44:12.496Z,57.47
2022-12-24T04:47:14.395Z,58.83
2022-12-24T04:50:16.316Z,57.35
2022-12-24T04:53:18.079Z,55.03
2022-12-24T04:56:27.227Z,57.53
2022-12-24T04:59:29.071Z,59.53
2022-12-24T05:02:31.128Z,54.90
2022-12-24T05:05:33.260Z,56.42
2022-12-24T05:08:35.168Z,53.97
2022-12-24T05:11:36.994Z,59.95
2022-12-24T05:14:39.901Z,59.95
2022-12-24T05:20:43.707Z,57.65
2022-12-24T05:24:04.124Z,57.30
2022-12-24T05:27:05.980Z,54.83
2022-12-24T05:30:09.805Z,58.13
2022-12-24T05:33:11.691Z,54.33
2022-12-24T05:36:14.611Z,55.83
2022-12-24T05:42:19.405Z,56.75
2022-12-24T05:45:21.218Z,54.35
2022-12-24T05:48:23.159Z,58.58
2022-12-24T05:51:25.014Z,57.90
2022-12-24T05:54:27.023Z,56.30
2022-12-24T05:57:28.891Z,59.13
2022-12-24T06:00:30.801Z,59.72
2022-12-24T06:03:33.575Z,63.03
2022-12-24T06:06:35.586Z,64.05
2022-12-24T06:09:37.502Z,63.63
2022-12-24T06:12:39.365Z,63.20
2022-12-24T06:15:41.187Z,63.80
2022-12-24T06:18:43.468Z,62.63
2022-12-24T06:21:45.289Z,59.70
2022-12-24T06:24:47.253Z,62.70
2022-12-24T06:27:49.088Z,66.35
2022-12-24T06:30:51.044Z,57.88
2022-12-24T06:33:53.126Z,65.85
2022-12-24T06:36:55.103Z,69.30
2022-12-24T06:39:56.909Z,64.03
2022-12-24T06:42:58.822Z,64.05
2022-12-24T06:46:02.542Z,68.05
2022-12-24T06:49:04.485Z,64.45
2022-12-24T06:52:06.383Z,63.85
2022-12-24T06:55:08.612Z,72.60
2022-12-24T06:58:10.924Z,71.10
2022-12-24T07:01:15.204Z,68.82
2022-12-24T07:04:20.496Z,63.95
2022-12-24T07:07:22.713Z,72.85
2022-12-24T07:10:25.428Z,69.78
2022-12-24T07:13:27.281Z,73.53
2022-12-24T07:16:29.308Z,80.07
2022-12-24T07:19:31.431Z,84.17
2022-12-24T07:22:33.321Z,79.83
2022-12-24T07:25:36.171Z,88.85
2022-12-24T07:28:38.077Z,97.05
2022-12-24T07:31:40.025Z,93.90
2022-12-24T07:34:42.090Z,91.93
2022-12-24T07:37:43.894Z,72.37
2022-12-24T07:40:45.693Z,75.80
2022-12-24T07:43:47.599Z,65.22
2022-12-24T07:46:49.448Z,68.00
2022-12-24T07:49:51.474Z,66.47
2022-12-24T07:52:53.406Z,67.82
2022-12-24T07:55:55.838Z,64.68
2022-12-24T07:58:57.959Z,60.47
2022-12-24T08:01:59.930Z,55.80
2022-12-24T08:05:02.058Z,53.58
2022-12-24T08:08:03.978Z,47.60
2022-12-24T08:11:07.648Z,61.08
2022-12-24T08:14:09.541Z,65.75
2022-12-24T08:17:11.330Z,55.92
2022-12-24T08:20:13.407Z,62.38
2022-12-24T08:23:15.400Z,57.47
2022-12-24T08:26:17.402Z,57.50
2022-12-24T08:29:19.225Z,50.27
2022-12-24T08:32:21.119Z,52.10
2022-12-24T08:35:23.132Z,73.03
2022-12-24T08:38:25.069Z,104.47
2022-12-24T08:41:26.939Z,98.22
2022-12-24T08:44:28.803Z,103.85
2022-12-24T08:47:30.692Z,81.80
2022-12-24T08:50:32.507Z,85.78
2022-12-24T08:53:34.392Z,93.40
2022-12-24T08:56:36.254Z,107.13
2022-12-24T08:59:38.222Z,121.53
2022-12-24T09:02:40.207Z,126.65
2022-12-24T09:05:42.393Z,111.60
2022-12-24T09:08:44.451Z,114.03
2022-12-24T09:11:46.311Z,106.83
2022-12-24T09:14:48.137Z,112.43
2022-12-24T09:17:50.026Z,187.25
2022-12-24T09:20:57.068Z,129.15
2022-12-24T09:24:01.355Z,119.15
2022-12-24T09:27:04.054Z,121.72
2022-12-24T09:30:07.368Z,94.55
2022-12-24T09:33:09.245Z,154.73
2022-12-24T09:39:48.652Z,133.07
2022-12-24T09:42:54.482Z,133.30
2022-12-24T09:46:05.056Z,172.18
2022-12-24T09:49:17.122Z,145.90
2022-12-24T09:52:44.693Z,142.32
2022-12-24T09:55:50.501Z,129.10
2022-12-24T09:59:04.711Z,102.82
2022-12-24T10:02:12.544Z,130.32
2022-12-24T10:05:15.945Z,143.00
2022-12-24T10:08:29.681Z,79.55
2022-12-24T10:12:03.653Z,89.65
2022-12-24T10:15:30.069Z,98.97
2022-12-24T10:18:52.721Z,87.03
2022-12-24T10:22:13.174Z,106.18
2022-12-24T10:25:44.221Z,83.57
2022-12-24T10:28:52.366Z,92.95
2022-12-24T10:31:58.659Z,156.13
2022-12-24T10:35:15.924Z,120.63
2022-12-24T10:38:17.800Z,149.55
2022-12-24T10:41:19.784Z,138.70
2022-12-24T10:44:24.501Z,92.10
2022-12-24T10:47:27.721Z,75.28
2022-12-24T10:50:39.620Z,95.10
2022-12-24T10:53:49.304Z,101.63
2022-12-24T10:56:56.559Z,128.27
2022-12-24T10:59:58.838Z,147.23
2022-12-24T11:03:12.812Z,84.45
2022-12-24T11:06:21.396Z,96.55
2022-12-24T11:09:35.249Z,130.30
2022-12-24T11:13:00.184Z,110.00
2022-12-24T11:16:32.231Z,86.25
2022-12-24T11:19:38.797Z,81.18
2022-12-24T11:22:42.270Z,122.97
2022-12-24T11:25:50.711Z,110.38
2022-12-24T11:29:16.961Z,134.15
2022-12-24T11:32:22.906Z,104.05
2022-12-24T11:35:26.542Z,103.88
2022-12-24T11:38:30.252Z,166.32
2022-12-24T11:41:37.744Z,112.93
2022-12-24T11:44:48.864Z,104.82
2022-12-24T11:47:52.143Z,92.32
2022-12-24T11:51:25.193Z,102.13
2022-12-24T11:54:31.075Z,107.53
2022-12-24T11:57:59.624Z,112.28
2022-12-24T12:01:30.344Z,93.95
2022-12-24T12:04:36.537Z,150.07
2022-12-24T12:07:39.143Z,111.85
2022-12-24T12:10:43.490Z,92.40
2022-12-24T12:13:47.218Z,113.63
2022-12-24T12:17:24.481Z,113.82
2022-12-24T12:20:28.675Z,80.20
2022-12-24T12:23:35.502Z,89.32
2022-12-24T12:26:37.718Z,86.72
2022-12-24T12:29:47.990Z,85.30
2022-12-24T12:32:55.930Z,90.28
2022-12-24T12:36:01.665Z,109.38
2022-12-24T12:39:03.515Z,110.28
2022-12-24T12:42:20.765Z,85.82
2022-12-24T12:45:39.487Z,98.35
2022-12-24T12:49:02.896Z,131.07
2022-12-24T12:52:37.943Z,94.57
2022-12-24T12:56:17.379Z,103.75
2022-12-24T12:59:38.872Z,113.50
2022-12-24T13:02:56.002Z,132.70
2022-12-24T13:06:35.133Z,109.35
2022-12-24T13:10:15.287Z,161.48
2022-12-24T13:13:44.612Z,76.93
2022-12-24T13:16:49.107Z,139.18
2022-12-24T13:20:29.750Z,218.82
2022-12-24T13:23:31.792Z,151.68
2022-12-24T13:26:33.990Z,127.13
2022-12-24T13:29:35.841Z,108.07
2022-12-24T13:32:48.299Z,169.10
2022-12-24T13:36:19.904Z,238.93
2022-12-24T13:39:21.811Z,87.70
2022-12-24T13:43:07.486Z,130.57
2022-12-24T13:46:09.590Z,170.73
2022-12-24T13:49:17.922Z,172.13
2022-12-24T13:52:24.295Z,109.57
2022-12-24T13:55:26.516Z,162.00
2022-12-24T13:58:28.525Z,164.20
2022-12-24T14:01:37.727Z,119.50
2022-12-24T14:04:42.357Z,162.63
2022-12-24T14:07:51.500Z,99.82
2022-12-24T14:11:07.391Z,250.93
2022-12-24T14:14:25.436Z,197.02
2022-12-24T14:17:29.819Z,148.15
2022-12-24T14:20:33.284Z,145.90
2022-12-24T14:23:58.404Z,132.52
2022-12-24T14:27:08.784Z,101.30
2022-12-24T14:30:18.823Z,115.82
2022-12-24T14:33:35.505Z,191.00
2022-12-24T14:36:39.172Z,249.38
2022-12-24T14:39:48.530Z,222.25
2022-12-24T14:43:03.711Z,154.02
2022-12-24T14:46:27.757Z,151.63
2022-12-24T14:49:51.512Z,146.05
2022-12-24T14:53:08.356Z,108.53
2022-12-24T14:56:23.761Z,155.75
2022-12-24T14:59:27.889Z,336.08
2022-12-24T15:03:12.104Z,221.98
2022-12-24T15:06:14.842Z,227.60
2022-12-24T15:09:19.512Z,179.35
2022-12-24T15:12:23.284Z,238.27
2022-12-24T15:15:25.360Z,298.75
2022-12-24T15:18:31.038Z,210.75
2022-12-24T15:21:37.658Z,176.63
2022-12-24T15:24:47.485Z,165.95
2022-12-24T15:27:49.803Z,221.45
2022-12-24T15:31:05.680Z,225.13
2022-12-24T15:34:26.863Z,198.70
2022-12-24T15:37:37.819Z,251.20
2022-12-24T15:40:39.756Z,331.17
2022-12-24T15:43:42.111Z,164.48
2022-12-24T15:46:43.987Z,253.70
2022-12-24T15:49:52.394Z,245.10
2022-12-24T15:53:20.814Z,250.20
2022-12-24T15:56:31.662Z,231.05
2022-12-24T15:59:38.309Z,258.63
2022-12-24T16:02:45.327Z,132.48
2022-12-24T16:06:11.321Z,282.17
2022-12-24T16:09:32.205Z,360.10
2022-12-24T16:12:35.103Z,350.70
2022-12-24T16:16:02.262Z,218.23
2022-12-24T16:19:07.025Z,197.45
2022-12-24T16:22:30.535Z,242.82
2022-12-24T16:25:32.449Z,179.10
2022-12-24T16:28:34.417Z,195.55
2022-12-24T16:31:39.183Z,217.13
2022-12-24T16:34:41.164Z,136.43
2022-12-24T16:37:42.997Z,153.00
2022-12-24T16:40:44.883Z,175.30
2022-12-24T16:43:50.488Z,125.28
2022-12-24T16:46:55.827Z,126.45
2022-12-24T16:49:59.191Z,138.25
2022-12-24T16:53:01.026Z,114.13
2022-12-24T16:56:02.994Z,129.05
2022-12-24T16:59:04.820Z,159.80
2022-12-24T17:05:16.892Z,94.72
2022-12-24T17:08:18.745Z,78.82
2022-12-24T17:11:23.669Z,91.40
2022-12-24T17:14:26.359Z,92.63
2022-12-24T17:17:29.900Z,81.93
2022-12-24T17:20:31.700Z,73.32
2022-12-24T17:23:33.731Z,73.70
2022-12-24T17:26:37.018Z,96.70
2022-12-24T17:29:39.107Z,81.38
2022-12-24T17:32:41.050Z,64.57
2022-12-24T17:35:43.935Z,73.30
2022-12-24T17:41:47.619Z,77.28
2022-12-24T17:44:49.505Z,83.32
2022-12-24T17:47:52.935Z,75.55
2022-12-24T17:50:54.837Z,68.20
2022-12-24T17:53:56.791Z,84.87
2022-12-24T17:56:58.804Z,70.97
2022-12-24T18:00:00.761Z,97.20
2022-12-24T18:03:02.869Z,77.25
2022-12-24T18:06:06.833Z,95.15
2022-12-24T18:09:08.779Z,71.00
2022-12-24T18:12:11.316Z,104.38
2022-12-24T18:18:15.329Z,80.93
2022-12-24T18:21:19.756Z,80.03
2022-12-24T18:24:21.656Z,63.33
2022-12-24T18:27:23.511Z,82.03
2022-12-24T18:30:27.866Z,244.20
2022-12-24T18:33:31.372Z,214.90
2022-12-24T18:36:33.702Z,89.18
2022-12-24T18:39:35.706Z,93.45
2022-12-24T18:42:42.323Z,294.47
2022-12-24T18:45:46.563Z,141.23
2022-12-24T18:48:48.595Z,215.05
2022-12-24T18:51:50.408Z,213.77
2022-12-24T18:54:52.257Z,174.02
2022-12-24T18:57:54.505Z,154.43
2022-12-24T19:00:57.550Z,134.52
2022-12-24T19:03:59.812Z,144.30
2022-12-24T19:07:02.868Z,201.63
2022-12-24T19:10:05.118Z,80.90
2022-12-24T19:13:06.957Z,126.55
2022-12-24T19:16:09.083Z,285.85
2022-12-24T19:19:11.512Z,133.60
2022-12-24T19:22:13.397Z,233.13
2022-12-24T19:25:15.362Z,209.13
2022-12-24T19:28:21.296Z,137.07
2022-12-24T19:31:26.468Z,152.30
2022-12-24T19:34:28.662Z,248.55
2022-12-24T19:37:30.500Z,114.85
2022-12-24T19:40:32.535Z,165.70
2022-12-24T19:43:38.162Z,183.90
2022-12-24T19:46:40.148Z,127.18
2022-12-24T19:49:42.220Z,217.13
2022-12-24T19:52:44.622Z,269.67
2022-12-24T19:55:46.528Z,121.93
2022-12-24T19:58:49.890Z,311.38
2022-12-24T20:01:54.342Z,207.20
2022-12-24T20:04:56.365Z,198.48
2022-12-24T20:07:58.280Z,125.68
2022-12-24T20:11:08.050Z,187.85
2022-12-24T20:14:11.790Z,324.98
2022-12-24T20:17:14.904Z,135.48
2022-12-24T20:20:16.734Z,131.00
2022-12-24T20:23:18.666Z,118.75
2022-12-24T20:26:23.967Z,212.40
2022-12-24T20:29:26.082Z,166.88
2022-12-24T20:32:29.565Z,177.27
2022-12-24T20:35:34.878Z,225.93
2022-12-24T20:38:37.674Z,148.63
2022-12-24T20:41:39.684Z,206.85
2022-12-24T20:44:41.487Z,265.73
2022-12-24T20:47:43.293Z,153.20
2022-12-24T20:50:45.721Z,91.15
2022-12-24T20:53:47.552Z,146.90
2022-12-24T20:56:57.835Z,120.45
2022-12-24T21:00:01.317Z,223.52
2022-12-24T21:06:06.013Z,158.60
2022-12-24T21:09:07.888Z,343.42
2022-12-24T21:12:30.289Z,350.40
2022-12-24T21:15:35.127Z,261.23
2022-12-24T21:18:37.121Z,234.60
2022-12-24T21:21:39.050Z,191.77
2022-12-24T21:24:41.087Z,182.90
2022-12-24T21:27:43.105Z,338.27
2022-12-24T21:30:44.988Z,272.93
2022-12-24T21:33:47.268Z,142.90
2022-12-24T21:36:49.039Z,155.75
2022-12-24T21:39:50.933Z,205.15
2022-12-24T21:42:52.819Z,175.55
2022-12-24T21:45:54.686Z,178.25
2022-12-24T21:49:15.765Z,175.95
2022-12-24T21:52:20.484Z,79.97
2022-12-24T21:55:22.359Z,348.48
2022-12-24T21:58:24.225Z,177.98
2022-12-24T22:01:26.199Z,183.73
2022-12-24T22:04:28.115Z,218.33
2022-12-24T22:07:48.524Z,189.85
2022-12-24T22:11:08.941Z,219.05
2022-12-24T22:14:10.742Z,180.25
2022-12-24T22:17:12.654Z,219.45
2022-12-24T22:20:14.627Z,293.97
2022-12-24T22:23:17.121Z,201.93
2022-12-24T22:26:19.004Z,107.78
2022-12-24T22:29:20.911Z,265.55
2022-12-24T22:32:22.774Z,197.40
2022-12-24T22:35:24.901Z,155.35
2022-12-24T22:38:26.673Z,205.65
2022-12-24T22:41:28.505Z,150.68
2022-12-24T22:44:30.417Z,158.63
2022-12-24T22:47:33.545Z,220.57
2022-12-24T22:50:35.409Z,123.00
2022-12-24T22:53:39.030Z,195.40
2022-12-24T22:56:41.692Z,223.38
2022-12-24T23:02:45.839Z,197.80
2022-12-24T23:05:55.749Z,118.97
2022-12-24T23:08:57.733Z,119.35
2022-12-24T23:11:59.781Z,128.90
2022-12-24T23:15:02.335Z,185.63
2022-12-24T23:18:04.884Z,170.45
2022-12-24T23:21:07.592Z,135.68
2022-12-24T23:24:10.278Z,130.63
2022-12-24T23:27:12.359Z,198.45
2022-12-24T23:30:14.444Z,277.15
2022-12-24T23:33:16.337Z,131.83
2022-12-24T23:36:18.564Z,161.10
2022-12-24T23:39:20.415Z,177.23
2022-12-24T23:42:22.523Z,156.48
2022-12-24T23:45:24.280Z,88.00
2022-12-24T23:48:26.876Z,183.55
2022-12-24T23:51:28.947Z,206.95
2022-12-24T23:54:30.850Z,150.70
2022-12-24T23:57:32.813Z,108.97
